sensor_id;sensor_type;location;lat;lon;timestamp;P1;durP1;ratioP1;P2;durP2;ratioP2
80910;SDS011;70359;51.420;7.032;2023-06-14T00:00:30;2.1;;;2;;
80910;SDS011;70359;51.420;7.032;2023-06-14T00:02:55;2.1;;;2;;
80910;SDS011;70359;51.420;7.032;2023-06-14T00:05:20;2.4;;;2.2;;
80910;SDS011;70359;51.420;7.032;2023-06-14T00:07:45;2.4;;;2.2;;
80910;SDS011;70359;51.420;7.032;2023-06-14T00:10:11;3.2;;;2.2;;
80910;SDS011;70359;51.420;7.032;2023-06-14T00:12:39;3.2;;;2.2;;
80910;SDS011;70359;51.420;7.032;2023-06-14T00:15:00;3.6;;;2.5;;
80910;SDS011;70359;51.420;7.032;2023-06-14T00:17:29;3.6;;;2.5;;
80910;SDS011;70359;51.420;7.032;2023-06-14T00:19:50;2.3;;;2.1;;
80910;SDS011;70359;51.420;7.032;2023-06-14T00:22:15;2.3;;;2.1;;
80910;SDS011;70359;51.420;7.032;2023-06-14T00:24:40;2.6;;;2.2;;
80910;SDS011;70359;51.420;7.032;2023-06-14T00:27:05;2.6;;;2.2;;
80910;SDS011;70359;51.420;7.032;2023-06-14T00:29:30;2.6;;;2.2;;
80910;SDS011;70359;51.420;7.032;2023-06-14T00:31:55;2.4;;;2.2;;
80910;SDS011;70359;51.420;7.032;2023-06-14T00:34:20;2.4;;;2.2;;
80910;SDS011;70359;51.420;7.032;2023-06-14T00:36:45;2.8;;;2.6;;
80910;SDS011;70359;51.420;7.032;2023-06-14T00:39:10;2.8;;;2.6;;
80910;SDS011;70359;51.420;7.032;2023-06-14T00:45:30;2.3;;;2.1;;
80910;SDS011;70359;51.420;7.032;2023-06-14T00:47:55;2.3;;;2.1;;
80910;SDS011;70359;51.420;7.032;2023-06-14T00:50:20;3.8;;;2.4;;
80910;SDS011;70359;51.420;7.032;2023-06-14T00:52:45;3.8;;;2.4;;
80910;SDS011;70359;51.420;7.032;2023-06-14T00:55:14;2.1;;;1.9;;
80910;SDS011;70359;51.420;7.032;2023-06-14T00:57:35;2.1;;;1.9;;
80910;SDS011;70359;51.420;7.032;2023-06-14T01:00:00;2.3;;;2.1;;
80910;SDS011;70359;51.420;7.032;2023-06-14T01:02:25;2.3;;;2.1;;
80910;SDS011;70359;51.420;7.032;2023-06-14T01:04:51;2.1;;;2;;
80910;SDS011;70359;51.420;7.032;2023-06-14T01:07:29;2.1;;;2;;
80910;SDS011;70359;51.420;7.032;2023-06-14T01:09:48;2.7;;;2.4;;
80910;SDS011;70359;51.420;7.032;2023-06-14T01:12:11;2.7;;;2.4;;
80910;SDS011;70359;51.420;7.032;2023-06-14T01:14:35;2.7;;;2.4;;
80910;SDS011;70359;51.420;7.032;2023-06-14T01:16:56;1.9;;;1.8;;
80910;SDS011;70359;51.420;7.032;2023-06-14T01:19:21;1.9;;;1.8;;
80910;SDS011;70359;51.420;7.032;2023-06-14T01:21:45;2.9;;;2.1;;
80910;SDS011;70359;51.420;7.032;2023-06-14T01:24:10;2.9;;;2.1;;
80910;SDS011;70359;51.420;7.032;2023-06-14T01:26:35;2.5;;;2.3;;
80910;SDS011;70359;51.420;7.032;2023-06-14T01:29:01;2.5;;;2.3;;
80910;SDS011;70359;51.420;7.032;2023-06-14T01:31:29;4.1;;;2.2;;
80910;SDS011;70359;51.420;7.032;2023-06-14T01:33:51;4.1;;;2.2;;
80910;SDS011;70359;51.420;7.032;2023-06-14T01:36:20;2.3;;;2.1;;
80910;SDS011;70359;51.420;7.032;2023-06-14T01:38:41;2.3;;;2.1;;
80910;SDS011;70359;51.420;7.032;2023-06-14T01:41:05;4.3;;;2.5;;
80910;SDS011;70359;51.420;7.032;2023-06-14T01:43:31;4.3;;;2.5;;
80910;SDS011;70359;51.420;7.032;2023-06-14T01:45:57;6.2;;;2.7;;
80910;SDS011;70359;51.420;7.032;2023-06-14T01:48:25;6.2;;;2.7;;
80910;SDS011;70359;51.420;7.032;2023-06-14T01:50:49;2.4;;;2.2;;
80910;SDS011;70359;51.420;7.032;2023-06-14T01:53:10;2.4;;;2.2;;
80910;SDS011;70359;51.420;7.032;2023-06-14T01:55:35;2.2;;;2.1;;
80910;SDS011;70359;51.420;7.032;2023-06-14T01:58:00;2.2;;;2.1;;
80910;SDS011;70359;51.420;7.032;2023-06-14T02:00:26;2.3;;;2;;
80910;SDS011;70359;51.420;7.032;2023-06-14T02:02:50;2.3;;;2;;
80910;SDS011;70359;51.420;7.032;2023-06-14T02:05:19;2;;;1.9;;
80910;SDS011;70359;51.420;7.032;2023-06-14T02:07:40;2;;;1.9;;
80910;SDS011;70359;51.420;7.032;2023-06-14T02:10:10;2.3;;;2.1;;
80910;SDS011;70359;51.420;7.032;2023-06-14T02:12:30;2.3;;;2.1;;
80910;SDS011;70359;51.420;7.032;2023-06-14T02:14:55;2.2;;;2.1;;
80910;SDS011;70359;51.420;7.032;2023-06-14T02:17:20;2.2;;;2.1;;
80910;SDS011;70359;51.420;7.032;2023-06-14T02:19:47;2.1;;;1.9;;
80910;SDS011;70359;51.420;7.032;2023-06-14T02:22:10;2.1;;;1.9;;
80910;SDS011;70359;51.420;7.032;2023-06-14T02:24:39;2.1;;;1.9;;
80910;SDS011;70359;51.420;7.032;2023-06-14T02:27:01;2.2;;;2;;
80910;SDS011;70359;51.420;7.032;2023-06-14T02:29:25;2.2;;;2;;
80910;SDS011;70359;51.420;7.032;2023-06-14T02:31:50;3;;;2.1;;
80910;SDS011;70359;51.420;7.032;2023-06-14T02:34:15;3;;;2.1;;
80910;SDS011;70359;51.420;7.032;2023-06-14T02:36:44;2.6;;;2.4;;
80910;SDS011;70359;51.420;7.032;2023-06-14T02:39:05;2.6;;;2.4;;
80910;SDS011;70359;51.420;7.032;2023-06-14T02:41:30;2;;;1.9;;
80910;SDS011;70359;51.420;7.032;2023-06-14T02:43:59;2;;;1.9;;
80910;SDS011;70359;51.420;7.032;2023-06-14T02:46:20;1.9;;;1.8;;
80910;SDS011;70359;51.420;7.032;2023-06-14T02:48:45;1.9;;;1.8;;
80910;SDS011;70359;51.420;7.032;2023-06-14T02:51:11;1.8;;;1.7;;
80910;SDS011;70359;51.420;7.032;2023-06-14T02:53:40;1.8;;;1.7;;
80910;SDS011;70359;51.420;7.032;2023-06-14T02:56:00;2.5;;;2.3;;
80910;SDS011;70359;51.420;7.032;2023-06-14T02:58:25;2.5;;;2.3;;
80910;SDS011;70359;51.420;7.032;2023-06-14T03:00:50;1.8;;;1.7;;
80910;SDS011;70359;51.420;7.032;2023-06-14T03:03:15;1.8;;;1.7;;
80910;SDS011;70359;51.420;7.032;2023-06-14T03:05:41;1.7;;;1.6;;
80910;SDS011;70359;51.420;7.032;2023-06-14T03:08:05;1.7;;;1.6;;
80910;SDS011;70359;51.420;7.032;2023-06-14T03:10:30;2.3;;;2;;
80910;SDS011;70359;51.420;7.032;2023-06-14T03:12:55;2.3;;;2;;
80910;SDS011;70359;51.420;7.032;2023-06-14T03:15:21;1.8;;;1.7;;
80910;SDS011;70359;51.420;7.032;2023-06-14T03:17:45;1.8;;;1.7;;
80910;SDS011;70359;51.420;7.032;2023-06-14T03:20:15;1.5;;;1.4;;
80910;SDS011;70359;51.420;7.032;2023-06-14T03:22:36;1.5;;;1.4;;
80910;SDS011;70359;51.420;7.032;2023-06-14T03:25:01;2.3;;;2.1;;
80910;SDS011;70359;51.420;7.032;2023-06-14T03:27:30;2.3;;;2.1;;
80910;SDS011;70359;51.420;7.032;2023-06-14T03:29:51;2.3;;;2.1;;
80910;SDS011;70359;51.420;7.032;2023-06-14T03:32:16;1.9;;;1.8;;
80910;SDS011;70359;51.420;7.032;2023-06-14T03:34:41;1.9;;;1.8;;
80910;SDS011;70359;51.420;7.032;2023-06-14T03:37:06;2.4;;;2.2;;
80910;SDS011;70359;51.420;7.032;2023-06-14T03:39:31;2.4;;;2.2;;
80910;SDS011;70359;51.420;7.032;2023-06-14T03:41:56;2.2;;;2;;
80910;SDS011;70359;51.420;7.032;2023-06-14T03:44:26;2.2;;;2;;
80910;SDS011;70359;51.420;7.032;2023-06-14T03:46:46;3.5;;;2.2;;
80910;SDS011;70359;51.420;7.032;2023-06-14T03:49:11;3.5;;;2.2;;
80910;SDS011;70359;51.420;7.032;2023-06-14T03:51:36;1.7;;;1.6;;
80910;SDS011;70359;51.420;7.032;2023-06-14T03:54:01;1.7;;;1.6;;
80910;SDS011;70359;51.420;7.032;2023-06-14T03:56:26;2.4;;;2.2;;
80910;SDS011;70359;51.420;7.032;2023-06-14T03:58:51;2.4;;;2.2;;
80910;SDS011;70359;51.420;7.032;2023-06-14T04:01:16;4.8;;;1.7;;
80910;SDS011;70359;51.420;7.032;2023-06-14T04:03:41;4.8;;;1.7;;
80910;SDS011;70359;51.420;7.032;2023-06-14T04:06:06;2;;;1.8;;
80910;SDS011;70359;51.420;7.032;2023-06-14T04:08:31;2;;;1.8;;
80910;SDS011;70359;51.420;7.032;2023-06-14T04:11:00;2.2;;;2;;
80910;SDS011;70359;51.420;7.032;2023-06-14T04:13:25;2.2;;;2;;
80910;SDS011;70359;51.420;7.032;2023-06-14T04:15:46;2.1;;;1.9;;
80910;SDS011;70359;51.420;7.032;2023-06-14T04:18:15;2.1;;;1.9;;
80910;SDS011;70359;51.420;7.032;2023-06-14T04:20:36;2.2;;;2.1;;
80910;SDS011;70359;51.420;7.032;2023-06-14T04:23:10;2.2;;;2.1;;
80910;SDS011;70359;51.420;7.032;2023-06-14T04:25:30;2.6;;;1.9;;
80910;SDS011;70359;51.420;7.032;2023-06-14T04:27:51;2.6;;;1.9;;
80910;SDS011;70359;51.420;7.032;2023-06-14T04:30:20;1.8;;;1.7;;
80910;SDS011;70359;51.420;7.032;2023-06-14T04:32:41;1.8;;;1.7;;
80910;SDS011;70359;51.420;7.032;2023-06-14T04:35:07;1.7;;;1.6;;
80910;SDS011;70359;51.420;7.032;2023-06-14T04:37:31;1.7;;;1.6;;
80910;SDS011;70359;51.420;7.032;2023-06-14T04:39:56;1.7;;;1.6;;
80910;SDS011;70359;51.420;7.032;2023-06-14T04:42:21;2.6;;;2.3;;
80910;SDS011;70359;51.420;7.032;2023-06-14T04:44:46;2.6;;;2.3;;
80910;SDS011;70359;51.420;7.032;2023-06-14T04:47:15;2.1;;;1.9;;
80910;SDS011;70359;51.420;7.032;2023-06-14T04:49:36;2.1;;;1.9;;
80910;SDS011;70359;51.420;7.032;2023-06-14T04:52:01;2.2;;;1.9;;
80910;SDS011;70359;51.420;7.032;2023-06-14T04:54:26;2.2;;;1.9;;
80910;SDS011;70359;51.420;7.032;2023-06-14T04:56:51;4.5;;;2.6;;
80910;SDS011;70359;51.420;7.032;2023-06-14T04:59:20;4.5;;;2.6;;
80910;SDS011;70359;51.420;7.032;2023-06-14T05:01:45;2.3;;;2;;
80910;SDS011;70359;51.420;7.032;2023-06-14T05:04:06;2.3;;;2;;
80910;SDS011;70359;51.420;7.032;2023-06-14T05:06:35;2;;;1.7;;
80910;SDS011;70359;51.420;7.032;2023-06-14T05:08:56;2;;;1.7;;
80910;SDS011;70359;51.420;7.032;2023-06-14T05:11:21;1.5;;;1.4;;
80910;SDS011;70359;51.420;7.032;2023-06-14T05:13:46;1.5;;;1.4;;
80910;SDS011;70359;51.420;7.032;2023-06-14T05:16:15;1.5;;;1.4;;
80910;SDS011;70359;51.420;7.032;2023-06-14T05:18:36;1.5;;;1.4;;
80910;SDS011;70359;51.420;7.032;2023-06-14T05:21:01;1.8;;;1.6;;
80910;SDS011;70359;51.420;7.032;2023-06-14T05:23:30;1.8;;;1.6;;
80910;SDS011;70359;51.420;7.032;2023-06-14T05:25:51;2.1;;;1.6;;
80910;SDS011;70359;51.420;7.032;2023-06-14T05:28:20;2.1;;;1.6;;
80910;SDS011;70359;51.420;7.032;2023-06-14T05:30:41;1.7;;;1.6;;
80910;SDS011;70359;51.420;7.032;2023-06-14T05:33:10;1.7;;;1.6;;
80910;SDS011;70359;51.420;7.032;2023-06-14T05:35:31;1.6;;;1.5;;
80910;SDS011;70359;51.420;7.032;2023-06-14T05:37:56;1.6;;;1.5;;
80910;SDS011;70359;51.420;7.032;2023-06-14T05:40:21;1.5;;;1.4;;
80910;SDS011;70359;51.420;7.032;2023-06-14T05:42:46;1.5;;;1.4;;
80910;SDS011;70359;51.420;7.032;2023-06-14T05:45:24;1.6;;;1.4;;
80910;SDS011;70359;51.420;7.032;2023-06-14T05:47:36;1.6;;;1.4;;
80910;SDS011;70359;51.420;7.032;2023-06-14T05:50:01;1.6;;;1.4;;
80910;SDS011;70359;51.420;7.032;2023-06-14T05:52:26;1.6;;;1.4;;
80910;SDS011;70359;51.420;7.032;2023-06-14T05:54:55;1.6;;;1.4;;
80910;SDS011;70359;51.420;7.032;2023-06-14T05:57:16;1.6;;;1.5;;
80910;SDS011;70359;51.420;7.032;2023-06-14T05:59:41;1.6;;;1.5;;
80910;SDS011;70359;51.420;7.032;2023-06-14T06:02:06;1.5;;;1.2;;
80910;SDS011;70359;51.420;7.032;2023-06-14T06:04:31;1.5;;;1.2;;
80910;SDS011;70359;51.420;7.032;2023-06-14T06:06:56;1.6;;;1.5;;
80910;SDS011;70359;51.420;7.032;2023-06-14T06:09:21;1.6;;;1.5;;
80910;SDS011;70359;51.420;7.032;2023-06-14T06:11:50;1.3;;;1.2;;
80910;SDS011;70359;51.420;7.032;2023-06-14T06:14:11;1.3;;;1.2;;
80910;SDS011;70359;51.420;7.032;2023-06-14T06:16:36;1.3;;;1.2;;
80910;SDS011;70359;51.420;7.032;2023-06-14T06:19:08;1.3;;;1.2;;
80910;SDS011;70359;51.420;7.032;2023-06-14T06:21:26;1.6;;;1.5;;
80910;SDS011;70359;51.420;7.032;2023-06-14T06:23:51;1.6;;;1.5;;
80910;SDS011;70359;51.420;7.032;2023-06-14T06:26:16;2.4;;;1.5;;
80910;SDS011;70359;51.420;7.032;2023-06-14T06:28:41;2.4;;;1.5;;
80910;SDS011;70359;51.420;7.032;2023-06-14T06:31:06;1.5;;;1.4;;
80910;SDS011;70359;51.420;7.032;2023-06-14T06:33:31;1.5;;;1.4;;
80910;SDS011;70359;51.420;7.032;2023-06-14T06:35:56;1.4;;;1.3;;
80910;SDS011;70359;51.420;7.032;2023-06-14T06:38:21;1.4;;;1.3;;
80910;SDS011;70359;51.420;7.032;2023-06-14T06:40:46;1.3;;;1.2;;
80910;SDS011;70359;51.420;7.032;2023-06-14T06:43:11;1.3;;;1.2;;
80910;SDS011;70359;51.420;7.032;2023-06-14T06:45:36;2.8;;;1.3;;
80910;SDS011;70359;51.420;7.032;2023-06-14T06:48:05;2.8;;;1.3;;
80910;SDS011;70359;51.420;7.032;2023-06-14T06:50:26;1;;;1;;
80910;SDS011;70359;51.420;7.032;2023-06-14T06:52:51;1;;;1;;
80910;SDS011;70359;51.420;7.032;2023-06-14T06:55:16;0.8;;;0.8;;
80910;SDS011;70359;51.420;7.032;2023-06-14T06:57:41;0.8;;;0.8;;
80910;SDS011;70359;51.420;7.032;2023-06-14T07:00:07;0.8;;;0.8;;
80910;SDS011;70359;51.420;7.032;2023-06-14T07:02:31;1.5;;;1.2;;
80910;SDS011;70359;51.420;7.032;2023-06-14T07:04:56;1.5;;;1.2;;
80910;SDS011;70359;51.420;7.032;2023-06-14T07:07:22;1.8;;;0.8;;
80910;SDS011;70359;51.420;7.032;2023-06-14T07:09:46;1.8;;;0.8;;
80910;SDS011;70359;51.420;7.032;2023-06-14T07:12:11;1.4;;;1.2;;
80910;SDS011;70359;51.420;7.032;2023-06-14T07:14:36;1.4;;;1.2;;
80910;SDS011;70359;51.420;7.032;2023-06-14T07:17:05;1;;;0.9;;
80910;SDS011;70359;51.420;7.032;2023-06-14T07:19:26;1;;;0.9;;
80910;SDS011;70359;51.420;7.032;2023-06-14T07:21:51;1.2;;;1.1;;
80910;SDS011;70359;51.420;7.032;2023-06-14T07:24:16;1.2;;;1.1;;
80910;SDS011;70359;51.420;7.032;2023-06-14T07:26:41;1.2;;;1;;
80910;SDS011;70359;51.420;7.032;2023-06-14T07:29:06;1.2;;;1;;
80910;SDS011;70359;51.420;7.032;2023-06-14T07:31:31;0.8;;;0.7;;
80910;SDS011;70359;51.420;7.032;2023-06-14T07:33:56;0.8;;;0.7;;
80910;SDS011;70359;51.420;7.032;2023-06-14T07:36:21;1;;;0.9;;
80910;SDS011;70359;51.420;7.032;2023-06-14T07:38:46;1;;;0.9;;
80910;SDS011;70359;51.420;7.032;2023-06-14T07:41:11;1.3;;;1.1;;
80910;SDS011;70359;51.420;7.032;2023-06-14T07:43:36;1.3;;;1.1;;
80910;SDS011;70359;51.420;7.032;2023-06-14T07:46:01;2.8;;;1.1;;
80910;SDS011;70359;51.420;7.032;2023-06-14T07:48:26;2.8;;;1.1;;
80910;SDS011;70359;51.420;7.032;2023-06-14T07:50:51;0.9;;;0.9;;
80910;SDS011;70359;51.420;7.032;2023-06-14T07:53:16;0.9;;;0.9;;
80910;SDS011;70359;51.420;7.032;2023-06-14T07:55:41;0.8;;;0.8;;
80910;SDS011;70359;51.420;7.032;2023-06-14T07:58:06;0.8;;;0.8;;
80910;SDS011;70359;51.420;7.032;2023-06-14T08:00:31;1.3;;;1.1;;
80910;SDS011;70359;51.420;7.032;2023-06-14T08:02:57;1.3;;;1.1;;
80910;SDS011;70359;51.420;7.032;2023-06-14T08:05:25;2.2;;;1.2;;
80910;SDS011;70359;51.420;7.032;2023-06-14T08:07:46;2.2;;;1.2;;
80910;SDS011;70359;51.420;7.032;2023-06-14T08:10:11;2.2;;;1.2;;
80910;SDS011;70359;51.420;7.032;2023-06-14T08:12:36;0.9;;;0.8;;
80910;SDS011;70359;51.420;7.032;2023-06-14T08:15:05;0.9;;;0.8;;
80910;SDS011;70359;51.420;7.032;2023-06-14T08:17:26;5.5;;;1.4;;
80910;SDS011;70359;51.420;7.032;2023-06-14T08:19:51;5.5;;;1.4;;
80910;SDS011;70359;51.420;7.032;2023-06-14T08:22:16;3;;;1;;
80910;SDS011;70359;51.420;7.032;2023-06-14T08:24:45;3;;;1;;
80910;SDS011;70359;51.420;7.032;2023-06-14T08:27:06;0.8;;;0.8;;
80910;SDS011;70359;51.420;7.032;2023-06-14T08:29:31;0.8;;;0.8;;
80910;SDS011;70359;51.420;7.032;2023-06-14T08:31:56;1.3;;;1;;
80910;SDS011;70359;51.420;7.032;2023-06-14T08:34:21;1.3;;;1;;
80910;SDS011;70359;51.420;7.032;2023-06-14T08:36:50;1.2;;;1.1;;
80910;SDS011;70359;51.420;7.032;2023-06-14T08:39:11;1.2;;;1.1;;
80910;SDS011;70359;51.420;7.032;2023-06-14T08:41:37;1;;;1;;
80910;SDS011;70359;51.420;7.032;2023-06-14T08:44:05;1;;;1;;
80910;SDS011;70359;51.420;7.032;2023-06-14T08:46:26;1.1;;;1.1;;
80910;SDS011;70359;51.420;7.032;2023-06-14T08:48:58;1.1;;;1.1;;
80910;SDS011;70359;51.420;7.032;2023-06-14T08:51:18;1.7;;;1.3;;
80910;SDS011;70359;51.420;7.032;2023-06-14T08:53:46;1.7;;;1.3;;
80910;SDS011;70359;51.420;7.032;2023-06-14T08:56:06;1.1;;;1;;
80910;SDS011;70359;51.420;7.032;2023-06-14T08:58:32;1.1;;;1;;
80910;SDS011;70359;51.420;7.032;2023-06-14T09:00:56;0.7;;;0.7;;
80910;SDS011;70359;51.420;7.032;2023-06-14T09:03:21;0.7;;;0.7;;
80910;SDS011;70359;51.420;7.032;2023-06-14T09:05:50;1.5;;;1.2;;
80910;SDS011;70359;51.420;7.032;2023-06-14T09:08:11;1.5;;;1.2;;
80910;SDS011;70359;51.420;7.032;2023-06-14T09:10:40;1;;;1;;
80910;SDS011;70359;51.420;7.032;2023-06-14T09:13:01;1;;;1;;
80910;SDS011;70359;51.420;7.032;2023-06-14T09:15:29;1.1;;;1;;
80910;SDS011;70359;51.420;7.032;2023-06-14T09:17:53;1.1;;;1;;
80910;SDS011;70359;51.420;7.032;2023-06-14T09:20:16;1.1;;;1;;
80910;SDS011;70359;51.420;7.032;2023-06-14T09:22:41;1.4;;;1.2;;
80910;SDS011;70359;51.420;7.032;2023-06-14T09:25:07;1.4;;;1.2;;
80910;SDS011;70359;51.420;7.032;2023-06-14T09:27:32;0.7;;;0.7;;
80910;SDS011;70359;51.420;7.032;2023-06-14T09:29:56;0.7;;;0.7;;
80910;SDS011;70359;51.420;7.032;2023-06-14T09:32:22;1.1;;;1;;
80910;SDS011;70359;51.420;7.032;2023-06-14T09:34:47;1.1;;;1;;
80910;SDS011;70359;51.420;7.032;2023-06-14T09:37:11;0.6;;;0.6;;
80910;SDS011;70359;51.420;7.032;2023-06-14T09:39:53;0.6;;;0.6;;
80910;SDS011;70359;51.420;7.032;2023-06-14T09:42:19;0.6;;;0.6;;
80910;SDS011;70359;51.420;7.032;2023-06-14T09:44:26;0.6;;;0.6;;
80910;SDS011;70359;51.420;7.032;2023-06-14T09:46:53;0.5;;;0.5;;
80910;SDS011;70359;51.420;7.032;2023-06-14T09:49:16;0.5;;;0.5;;
80910;SDS011;70359;51.420;7.032;2023-06-14T09:51:45;0.9;;;0.8;;
80910;SDS011;70359;51.420;7.032;2023-06-14T09:54:12;0.9;;;0.8;;
80910;SDS011;70359;51.420;7.032;2023-06-14T09:56:35;0.6;;;0.6;;
80910;SDS011;70359;51.420;7.032;2023-06-14T09:58:58;0.6;;;0.6;;
80910;SDS011;70359;51.420;7.032;2023-06-14T10:01:23;0.7;;;0.7;;
80910;SDS011;70359;51.420;7.032;2023-06-14T10:03:51;0.7;;;0.7;;
80910;SDS011;70359;51.420;7.032;2023-06-14T10:06:16;0.7;;;0.7;;
80910;SDS011;70359;51.420;7.032;2023-06-14T10:08:37;0.7;;;0.7;;
80910;SDS011;70359;51.420;7.032;2023-06-14T10:11:01;0.7;;;0.6;;
80910;SDS011;70359;51.420;7.032;2023-06-14T10:13:29;0.7;;;0.6;;
80910;SDS011;70359;51.420;7.032;2023-06-14T10:15:58;0.6;;;0.6;;
80910;SDS011;70359;51.420;7.032;2023-06-14T10:18:24;0.6;;;0.6;;
80910;SDS011;70359;51.420;7.032;2023-06-14T10:20:45;0.6;;;0.6;;
80910;SDS011;70359;51.420;7.032;2023-06-14T10:23:10;0.6;;;0.6;;
80910;SDS011;70359;51.420;7.032;2023-06-14T10:25:33;0.6;;;0.6;;
80910;SDS011;70359;51.420;7.032;2023-06-14T10:28:02;0.9;;;0.7;;
80910;SDS011;70359;51.420;7.032;2023-06-14T10:30:25;0.9;;;0.7;;
80910;SDS011;70359;51.420;7.032;2023-06-14T10:33:08;0.7;;;0.7;;
80910;SDS011;70359;51.420;7.032;2023-06-14T10:35:16;0.7;;;0.7;;
80910;SDS011;70359;51.420;7.032;2023-06-14T10:37:37;0.8;;;0.8;;
80910;SDS011;70359;51.420;7.032;2023-06-14T10:40:06;0.8;;;0.8;;
80910;SDS011;70359;51.420;7.032;2023-06-14T10:42:27;1.2;;;0.7;;
80910;SDS011;70359;51.420;7.032;2023-06-14T10:44:55;1.2;;;0.7;;
80910;SDS011;70359;51.420;7.032;2023-06-14T10:47:28;5.7;;;0.7;;
80910;SDS011;70359;51.420;7.032;2023-06-14T10:49:46;5.7;;;0.7;;
80910;SDS011;70359;51.420;7.032;2023-06-14T10:52:07;0.8;;;0.8;;
80910;SDS011;70359;51.420;7.032;2023-06-14T10:54:36;0.8;;;0.8;;
80910;SDS011;70359;51.420;7.032;2023-06-14T10:56:58;0.7;;;0.6;;
80910;SDS011;70359;51.420;7.032;2023-06-14T10:59:26;0.7;;;0.6;;
80910;SDS011;70359;51.420;7.032;2023-06-14T11:01:57;1.1;;;1;;
80910;SDS011;70359;51.420;7.032;2023-06-14T11:04:12;1.1;;;1;;
80910;SDS011;70359;51.420;7.032;2023-06-14T11:06:44;0.7;;;0.7;;
80910;SDS011;70359;51.420;7.032;2023-06-14T11:09:55;0.7;;;0.7;;
80910;SDS011;70359;51.420;7.032;2023-06-14T11:11:31;0.8;;;0.8;;
80910;SDS011;70359;51.420;7.032;2023-06-14T11:13:52;0.8;;;0.8;;
80910;SDS011;70359;51.420;7.032;2023-06-14T11:16:18;0.6;;;0.6;;
80910;SDS011;70359;51.420;7.032;2023-06-14T11:18:42;0.6;;;0.6;;
80910;SDS011;70359;51.420;7.032;2023-06-14T11:21:07;0.7;;;0.7;;
80910;SDS011;70359;51.420;7.032;2023-06-14T11:23:32;0.7;;;0.7;;
80910;SDS011;70359;51.420;7.032;2023-06-14T11:26:01;0.6;;;0.6;;
80910;SDS011;70359;51.420;7.032;2023-06-14T11:28:26;0.6;;;0.6;;
80910;SDS011;70359;51.420;7.032;2023-06-14T11:30:47;2.4;;;0.9;;
80910;SDS011;70359;51.420;7.032;2023-06-14T11:33:20;2.4;;;0.9;;
80910;SDS011;70359;51.420;7.032;2023-06-14T11:35:41;2.4;;;0.9;;
80910;SDS011;70359;51.420;7.032;2023-06-14T11:38:02;1.1;;;1;;
80910;SDS011;70359;51.420;7.032;2023-06-14T11:40:27;1.1;;;1;;
80910;SDS011;70359;51.420;7.032;2023-06-14T11:42:58;1.1;;;0.9;;
80910;SDS011;70359;51.420;7.032;2023-06-14T11:45:18;1.1;;;0.9;;
80910;SDS011;70359;51.420;7.032;2023-06-14T11:47:42;0.7;;;0.7;;
80910;SDS011;70359;51.420;7.032;2023-06-14T11:50:09;0.7;;;0.7;;
80910;SDS011;70359;51.420;7.032;2023-06-14T11:52:32;0.7;;;0.6;;
80910;SDS011;70359;51.420;7.032;2023-06-14T11:54:57;0.7;;;0.6;;
80910;SDS011;70359;51.420;7.032;2023-06-14T11:57:26;0.9;;;0.7;;
80910;SDS011;70359;51.420;7.032;2023-06-14T11:59:48;0.9;;;0.7;;
80910;SDS011;70359;51.420;7.032;2023-06-14T12:02:13;0.7;;;0.7;;
80910;SDS011;70359;51.420;7.032;2023-06-14T12:04:46;0.7;;;0.7;;
80910;SDS011;70359;51.420;7.032;2023-06-14T12:07:13;0.8;;;0.8;;
80910;SDS011;70359;51.420;7.032;2023-06-14T12:09:27;0.8;;;0.8;;
80910;SDS011;70359;51.420;7.032;2023-06-14T12:11:59;0.6;;;0.6;;
80910;SDS011;70359;51.420;7.032;2023-06-14T12:14:17;0.6;;;0.6;;
80910;SDS011;70359;51.420;7.032;2023-06-14T12:16:45;0.8;;;0.8;;
80910;SDS011;70359;51.420;7.032;2023-06-14T12:19:14;0.8;;;0.8;;
80910;SDS011;70359;51.420;7.032;2023-06-14T12:21:32;1.1;;;1;;
80910;SDS011;70359;51.420;7.032;2023-06-14T12:23:57;1.1;;;1;;
80910;SDS011;70359;51.420;7.032;2023-06-14T12:26:24;1.2;;;1.1;;
80910;SDS011;70359;51.420;7.032;2023-06-14T12:28:48;1.2;;;1.1;;
80910;SDS011;70359;51.420;7.032;2023-06-14T12:31:12;0.8;;;0.8;;
80910;SDS011;70359;51.420;7.032;2023-06-14T12:33:37;0.8;;;0.8;;
80910;SDS011;70359;51.420;7.032;2023-06-14T12:36:07;1.4;;;1.2;;
80910;SDS011;70359;51.420;7.032;2023-06-14T12:38:31;1.4;;;1.2;;
80910;SDS011;70359;51.420;7.032;2023-06-14T12:40:52;0.7;;;0.7;;
80910;SDS011;70359;51.420;7.032;2023-06-14T12:43:21;0.7;;;0.7;;
80910;SDS011;70359;51.420;7.032;2023-06-14T12:45:42;0.7;;;0.7;;
80910;SDS011;70359;51.420;7.032;2023-06-14T12:48:11;1.7;;;1.1;;
80910;SDS011;70359;51.420;7.032;2023-06-14T12:50:32;1.7;;;1.1;;
80910;SDS011;70359;51.420;7.032;2023-06-14T12:52:57;1;;;0.9;;
80910;SDS011;70359;51.420;7.032;2023-06-14T12:55:22;1;;;0.9;;
80910;SDS011;70359;51.420;7.032;2023-06-14T12:57:47;0.8;;;0.7;;
80910;SDS011;70359;51.420;7.032;2023-06-14T13:00:17;0.8;;;0.7;;
80910;SDS011;70359;51.420;7.032;2023-06-14T13:02:37;1;;;1;;
80910;SDS011;70359;51.420;7.032;2023-06-14T13:05:02;1;;;1;;
80910;SDS011;70359;51.420;7.032;2023-06-14T13:07:27;1;;;0.9;;
80910;SDS011;70359;51.420;7.032;2023-06-14T13:09:52;1;;;0.9;;
80910;SDS011;70359;51.420;7.032;2023-06-14T13:12:17;1.1;;;1;;
80910;SDS011;70359;51.420;7.032;2023-06-14T13:14:42;1.1;;;1;;
80910;SDS011;70359;51.420;7.032;2023-06-14T13:17:07;1;;;0.9;;
80910;SDS011;70359;51.420;7.032;2023-06-14T13:19:32;1;;;0.9;;
80910;SDS011;70359;51.420;7.032;2023-06-14T13:21:57;2.8;;;1;;
80910;SDS011;70359;51.420;7.032;2023-06-14T13:24:22;2.8;;;1;;
80910;SDS011;70359;51.420;7.032;2023-06-14T13:26:51;1.4;;;1.3;;
80910;SDS011;70359;51.420;7.032;2023-06-14T13:29:12;1.4;;;1.3;;
80910;SDS011;70359;51.420;7.032;2023-06-14T13:31:37;1.3;;;1.2;;
80910;SDS011;70359;51.420;7.032;2023-06-14T13:34:02;1.3;;;1.2;;
80910;SDS011;70359;51.420;7.032;2023-06-14T13:36:27;0.7;;;0.7;;
80910;SDS011;70359;51.420;7.032;2023-06-14T13:38:52;0.7;;;0.7;;
80910;SDS011;70359;51.420;7.032;2023-06-14T13:41:17;1.3;;;1.2;;
80910;SDS011;70359;51.420;7.032;2023-06-14T13:43:42;1.3;;;1.2;;
80910;SDS011;70359;51.420;7.032;2023-06-14T13:46:07;1.2;;;1.1;;
80910;SDS011;70359;51.420;7.032;2023-06-14T13:48:32;1.2;;;1.1;;
80910;SDS011;70359;51.420;7.032;2023-06-14T13:51:03;1.2;;;1.1;;
80910;SDS011;70359;51.420;7.032;2023-06-14T13:53:26;0.9;;;0.9;;
80910;SDS011;70359;51.420;7.032;2023-06-14T13:55:51;0.9;;;0.9;;
80910;SDS011;70359;51.420;7.032;2023-06-14T13:58:16;0.7;;;0.7;;
80910;SDS011;70359;51.420;7.032;2023-06-14T14:00:41;0.7;;;0.7;;
80910;SDS011;70359;51.420;7.032;2023-06-14T14:03:02;0.8;;;0.8;;
80910;SDS011;70359;51.420;7.032;2023-06-14T14:05:27;0.8;;;0.8;;
80910;SDS011;70359;51.420;7.032;2023-06-14T14:07:52;0.8;;;0.8;;
80910;SDS011;70359;51.420;7.032;2023-06-14T14:10:17;0.8;;;0.8;;
80910;SDS011;70359;51.420;7.032;2023-06-14T14:12:46;1.1;;;1;;
80910;SDS011;70359;51.420;7.032;2023-06-14T14:15:08;1.1;;;1;;
80910;SDS011;70359;51.420;7.032;2023-06-14T14:17:32;1.5;;;1.4;;
80910;SDS011;70359;51.420;7.032;2023-06-14T14:19:57;1.5;;;1.4;;
80910;SDS011;70359;51.420;7.032;2023-06-14T14:22:22;0.8;;;0.8;;
80910;SDS011;70359;51.420;7.032;2023-06-14T14:24:47;0.8;;;0.8;;
80910;SDS011;70359;51.420;7.032;2023-06-14T14:27:16;0.7;;;0.7;;
80910;SDS011;70359;51.420;7.032;2023-06-14T14:29:37;0.7;;;0.7;;
80910;SDS011;70359;51.420;7.032;2023-06-14T14:32:02;0.8;;;0.8;;
80910;SDS011;70359;51.420;7.032;2023-06-14T14:34:31;0.8;;;0.8;;
80910;SDS011;70359;51.420;7.032;2023-06-14T14:36:56;1.1;;;1;;
80910;SDS011;70359;51.420;7.032;2023-06-14T14:39:17;1.1;;;1;;
80910;SDS011;70359;51.420;7.032;2023-06-14T14:41:42;1.5;;;1.4;;
80910;SDS011;70359;51.420;7.032;2023-06-14T14:44:08;1.5;;;1.4;;
80910;SDS011;70359;51.420;7.032;2023-06-14T14:46:32;0.9;;;0.9;;
80910;SDS011;70359;51.420;7.032;2023-06-14T14:48:58;0.9;;;0.9;;
80910;SDS011;70359;51.420;7.032;2023-06-14T14:51:22;1.3;;;1.2;;
80910;SDS011;70359;51.420;7.032;2023-06-14T14:53:47;1.3;;;1.2;;
80910;SDS011;70359;51.420;7.032;2023-06-14T14:56:13;1.2;;;1.1;;
80910;SDS011;70359;51.420;7.032;2023-06-14T14:58:37;1.2;;;1.1;;
80910;SDS011;70359;51.420;7.032;2023-06-14T15:01:02;1.2;;;1.1;;
80910;SDS011;70359;51.420;7.032;2023-06-14T15:03:27;1.3;;;1.2;;
80910;SDS011;70359;51.420;7.032;2023-06-14T15:05:56;1.3;;;1.2;;
80910;SDS011;70359;51.420;7.032;2023-06-14T15:08:17;1;;;0.9;;
80910;SDS011;70359;51.420;7.032;2023-06-14T15:10:46;1;;;0.9;;